Time;durP1;ratioP1;P1;durP2;ratioP2;P2;SDS_P1;SDS_P2;PMS_P1;PMS_P2;Temp;Humidity;BMP_temperature;BMP_pressure;BME280_temperature;BME280_humidity;BME280_pressure;Samples;Min_cycle;Max_cycle;Signal;HPM_P1;HPM_P2
2022/06/18 00:02:20;;;;;;;7.20;4.15;;;19.60;99.90;;;;;;4881264;29;20286;-88
2022/06/18 00:04:48;;;;;;;6.65;4.60;;;19.50;99.90;;;;;;4879772;29;20191;-88
2022/06/18 00:07:18;;;;;;;6.60;3.80;;;19.50;99.90;;;;;;4880889;29;20377;-89
2022/06/18 00:09:54;;;;;;;8.80;4.35;;;19.50;99.90;;;;;;4880646;29;20223;-89
2022/06/18 00:15:12;;;;;;;8.15;4.43;;;19.40;99.90;;;;;;4880567;29;20665;-90
2022/06/18 00:17:41;;;;;;;5.70;4.10;;;19.40;99.90;;;;;;4880974;29;20631;-90
2022/06/18 00:20:10;;;;;;;5.07;4.30;;;19.40;99.90;;;;;;4881011;29;20290;-90
2022/06/18 00:22:37;;;;;;;6.05;4.10;;;19.30;99.90;;;;;;4879636;29;20203;-89
2022/06/18 00:25:11;;;;;;;4.72;3.88;;;19.40;99.90;;;;;;4881047;29;20707;-89
2022/06/18 00:27:38;;;;;;;5.43;4.03;;;19.30;99.90;;;;;;4880628;29;20298;-89
2022/06/18 00:30:10;;;;;;;4.05;3.65;;;19.30;99.90;;;;;;4880742;29;20662;-89
2022/06/18 00:32:37;;;;;;;6.30;4.10;;;19.30;99.90;;;;;;4880747;29;20264;-90
2022/06/18 00:35:06;;;;;;;6.10;4.38;;;19.30;99.90;;;;;;4880855;29;20207;-87
2022/06/18 00:37:33;;;;;;;4.68;3.85;;;19.30;99.90;;;;;;4880309;29;20650;-88
2022/06/18 00:40:01;;;;;;;4.78;4.18;;;19.30;99.90;;;;;;4880610;29;20624;-90
2022/06/18 00:42:30;;;;;;;5.28;4.40;;;19.20;99.90;;;;;;4879997;29;20233;-89
2022/06/18 00:45:00;;;;;;;7.10;4.30;;;19.20;99.90;;;;;;4879948;29;20262;-89
2022/06/18 00:47:33;;;;;;;6.53;4.22;;;19.20;99.90;;;;;;4880209;29;20301;-90
2022/06/18 00:50:05;;;;;;;4.93;4.40;;;19.20;99.90;;;;;;4880555;29;20203;-90
2022/06/18 00:52:39;;;;;;;5.55;4.45;;;19.10;99.90;;;;;;4879997;29;20654;-89
2022/06/18 00:55:11;;;;;;;6.78;4.40;;;19.10;99.90;;;;;;4880064;29;20249;-90
2022/06/18 00:57:44;;;;;;;4.75;4.25;;;19.10;99.90;;;;;;4876807;29;20298;-89
2022/06/18 01:00:17;;;;;;;4.57;3.55;;;19.00;99.90;;;;;;4879736;29;20626;-89
2022/06/18 01:02:46;;;;;;;4.38;3.83;;;19.00;99.90;;;;;;4874733;29;20195;-89
2022/06/18 01:05:20;;;;;;;5.13;4.50;;;19.00;99.90;;;;;;4880067;29;20238;-88
2022/06/18 01:07:53;;;;;;;5.80;4.13;;;19.00;99.90;;;;;;4879993;29;20217;-89
2022/06/18 01:10:25;;;;;;;6.25;4.22;;;18.90;99.90;;;;;;4878818;29;20222;-89
2022/06/18 01:12:52;;;;;;;5.93;4.95;;;18.90;99.90;;;;;;4878863;29;20198;-88
2022/06/18 01:15:21;;;;;;;7.47;4.45;;;18.90;99.90;;;;;;4875150;29;20198;-89
2022/06/18 01:17:51;;;;;;;9.10;4.65;;;18.90;99.90;;;;;;4879835;29;20230;-89
2022/06/18 01:20:19;;;;;;;7.88;4.80;;;18.90;99.90;;;;;;4879776;29;20223;-89
2022/06/18 01:22:56;;;;;;;4.45;3.78;;;18.90;99.90;;;;;;4878315;29;20209;-89
2022/06/18 01:25:27;;;;;;;7.22;4.50;;;18.90;99.90;;;;;;4878640;29;20219;-90
2022/06/18 01:27:55;;;;;;;4.80;4.30;;;18.90;99.90;;;;;;4879577;29;20293;-90
2022/06/18 01:30:25;;;;;;;5.75;4.30;;;18.90;99.90;;;;;;4879528;29;20278;-89
2022/06/18 01:32:55;;;;;;;6.40;4.25;;;18.90;99.90;;;;;;4879419;29;20207;-89
2022/06/18 01:35:23;;;;;;;6.78;4.70;;;18.90;99.90;;;;;;4879342;29;20289;-89
2022/06/18 01:37:50;;;;;;;5.40;4.20;;;18.90;99.90;;;;;;4879553;29;20713;-88
2022/06/18 01:40:25;;;;;;;6.35;4.45;;;18.90;99.90;;;;;;4879073;29;20286;-89
2022/06/18 01:42:57;;;;;;;5.85;4.63;;;18.90;99.90;;;;;;4879422;29;20676;-90
2022/06/18 01:45:28;;;;;;;7.50;4.47;;;18.80;99.90;;;;;;4878691;29;20286;-89
2022/06/18 01:47:58;;;;;;;6.53;4.40;;;18.80;99.90;;;;;;4879387;29;20286;-89
2022/06/18 01:50:31;;;;;;;9.27;5.07;;;18.80;99.90;;;;;;4879180;29;20284;-88
2022/06/18 01:53:02;;;;;;;6.65;4.55;;;18.70;99.90;;;;;;4878287;29;20290;-88
2022/06/18 01:55:34;;;;;;;6.78;4.93;;;18.70;99.90;;;;;;4879070;29;20239;-89
2022/06/18 01:58:06;;;;;;;5.40;4.57;;;18.70;99.90;;;;;;4879208;29;20210;-89
2022/06/18 02:00:34;;;;;;;6.88;4.88;;;18.60;99.90;;;;;;4878957;29;20531;-89
2022/06/18 02:03:03;;;;;;;8.80;4.80;;;18.60;99.90;;;;;;4873342;29;20226;-89
2022/06/18 02:05:30;;;;;;;6.85;4.75;;;18.60;99.90;;;;;;4879034;29;20211;-90
2022/06/18 02:07:59;;;;;;;6.63;4.55;;;18.60;99.90;;;;;;4878840;29;20664;-88
2022/06/18 02:10:29;;;;;;;9.10;5.10;;;18.60;99.90;;;;;;4878794;29;20199;-89
2022/06/18 02:12:58;;;;;;;7.15;4.68;;;18.60;99.90;;;;;;4878919;29;20298;-88
2022/06/18 02:15:30;;;;;;;5.28;4.43;;;18.60;99.90;;;;;;4878849;29;20214;-89
2022/06/18 02:18:00;;;;;;;6.70;4.75;;;18.60;99.90;;;;;;4878734;29;20214;-87
2022/06/18 02:20:30;;;;;;;6.93;4.88;;;18.60;99.90;;;;;;4878782;29;20287;-89
2022/06/18 02:22:58;;;;;;;7.70;4.70;;;18.60;99.90;;;;;;4875426;29;20619;-88
2022/06/18 02:25:26;;;;;;;5.43;4.78;;;18.60;99.90;;;;;;4866278;29;20592;-89
2022/06/18 02:27:58;;;;;;;6.82;4.95;;;18.60;99.90;;;;;;4878127;29;20305;-88
2022/06/18 02:30:30;;;;;;;7.93;4.93;;;18.60;99.90;;;;;;4878806;29;20281;-89
2022/06/18 02:33:02;;;;;;;7.22;4.97;;;18.50;99.90;;;;;;4878814;29;20618;-89
2022/06/18 02:35:32;;;;;;;4.95;4.47;;;18.60;99.90;;;;;;4878916;29;20234;-89
2022/06/18 02:38:00;;;;;;;6.32;4.68;;;18.60;99.90;;;;;;4878225;29;20213;-88
2022/06/18 02:40:30;;;;;;;5.45;4.47;;;18.60;99.90;;;;;;4878584;29;20207;-88
2022/06/18 02:43:01;;;;;;;6.35;4.80;;;18.60;99.90;;;;;;4878292;29;20258;-89
2022/06/18 02:45:31;;;;;;;6.50;5.50;;;18.60;99.90;;;;;;4880111;29;20650;-89
2022/06/18 02:48:00;;;;;;;6.80;4.72;;;18.60;99.90;;;;;;4882467;29;20301;-89
2022/06/18 02:50:31;;;;;;;5.22;4.22;;;18.50;99.90;;;;;;4882281;29;20214;-88
2022/06/18 02:53:02;;;;;;;5.75;4.55;;;18.50;99.90;;;;;;4882268;29;20298;-88
2022/06/18 02:55:31;;;;;;;5.55;4.28;;;18.50;99.90;;;;;;4882456;29;20701;-90
2022/06/18 02:58:03;;;;;;;6.55;4.68;;;18.50;99.90;;;;;;4882361;29;20230;-89
2022/06/18 03:00:36;;;;;;;6.55;4.57;;;18.40;99.90;;;;;;4882104;29;20462;-89
2022/06/18 03:03:03;;;;;;;5.75;4.25;;;18.40;99.90;;;;;;4882043;29;20205;-88
2022/06/18 03:05:30;;;;;;;5.43;4.65;;;18.40;99.90;;;;;;4882240;29;20213;-89
2022/06/18 03:07:57;;;;;;;5.85;4.47;;;18.40;99.90;;;;;;4881944;29;20226;-89
2022/06/18 03:13:08;;;;;;;12.52;4.80;;;18.40;99.90;;;;;;4881980;29;20290;-89
2022/06/18 03:15:37;;;;;;;13.95;5.13;;;18.40;99.90;;;;;;4882145;29;20207;-88
2022/06/18 03:18:06;;;;;;;11.13;4.78;;;18.50;99.90;;;;;;4881528;29;20233;-89
2022/06/18 03:20:47;;;;;;;9.90;4.82;;;18.50;99.90;;;;;;4881514;29;20207;-88
2022/06/18 03:23:17;;;;;;;8.35;4.38;;;18.50;99.90;;;;;;4881572;29;20290;-88
2022/06/18 03:25:44;;;;;;;5.43;4.57;;;18.50;99.90;;;;;;4881918;29;20195;-90
2022/06/18 03:28:14;;;;;;;4.70;4.20;;;18.50;99.90;;;;;;4881815;29;20648;-90
2022/06/18 03:30:42;;;;;;;5.45;4.55;;;18.50;99.90;;;;;;4882259;29;20229;-89
2022/06/18 03:33:10;;;;;;;6.50;4.88;;;18.50;99.90;;;;;;4881649;29;20282;-89
2022/06/18 03:35:37;;;;;;;4.63;4.13;;;18.60;99.90;;;;;;4881936;29;20282;-89
2022/06/18 03:38:04;;;;;;;5.18;4.55;;;18.60;99.90;;;;;;4881209;29;20199;-89
2022/06/18 03:40:31;;;;;;;5.70;4.68;;;18.60;99.90;;;;;;4881705;29;20215;-89
2022/06/18 03:42:58;;;;;;;6.70;4.72;;;18.60;99.90;;;;;;4880847;29;20203;-89
2022/06/18 03:45:25;;;;;;;7.63;4.45;;;18.60;99.90;;;;;;4881596;29;20267;-88
2022/06/18 03:47:54;;;;;;;6.43;4.53;;;18.70;99.90;;;;;;4881344;29;20199;-89
2022/06/18 03:50:21;;;;;;;7.07;4.20;;;18.80;99.90;;;;;;4881321;29;20202;-89
2022/06/18 03:52:49;;;;;;;7.15;4.50;;;18.80;99.90;;;;;;4880525;29;20289;-88
2022/06/18 03:55:17;;;;;;;4.70;4.10;;;18.90;99.90;;;;;;4881339;29;20317;-89
2022/06/18 03:57:44;;;;;;;6.70;4.63;;;19.10;99.90;;;;;;4881000;29;20199;-90
2022/06/18 04:00:16;;;;;;;4.90;4.40;;;19.30;99.90;;;;;;4880888;29;20653;-89
2022/06/18 04:02:43;;;;;;;5.07;4.28;;;19.40;99.90;;;;;;4880889;29;20632;-89
2022/06/18 04:05:12;;;;;;;8.15;4.32;;;19.50;99.90;;;;;;4881010;29;20613;-89
2022/06/18 04:07:41;;;;;;;5.15;4.38;;;19.50;99.90;;;;;;4881157;29;20206;-89
2022/06/18 04:10:08;;;;;;;6.00;5.05;;;19.50;99.90;;;;;;4880253;29;20317;-90
2022/06/18 04:12:35;;;;;;;6.45;4.38;;;19.60;99.90;;;;;;4881058;29;20278;-89
2022/06/18 04:15:02;;;;;;;5.65;4.60;;;19.50;99.90;;;;;;4880737;29;20203;-89
2022/06/18 04:17:30;;;;;;;6.50;4.32;;;19.50;99.90;;;;;;4880660;29;20255;-89
2022/06/18 04:19:57;;;;;;;6.38;4.20;;;19.50;99.90;;;;;;4880695;29;20199;-89
2022/06/18 04:22:25;;;;;;;5.30;3.95;;;19.50;99.90;;;;;;4880362;29;20283;-88
2022/06/18 04:24:52;;;;;;;6.63;4.47;;;19.50;99.90;;;;;;4879879;29;20203;-89
2022/06/18 04:27:19;;;;;;;4.38;3.97;;;19.60;99.90;;;;;;4880547;29;20282;-89
2022/06/18 04:29:46;;;;;;;7.65;4.13;;;19.70;99.90;;;;;;4880205;29;20254;-89
2022/06/18 04:32:13;;;;;;;6.45;4.07;;;19.80;99.90;;;;;;4880281;29;20714;-89
2022/06/18 04:34:40;;;;;;;6.05;4.00;;;19.90;99.90;;;;;;4880940;29;20225;-90
2022/06/18 04:37:07;;;;;;;4.70;4.03;;;20.00;99.90;;;;;;4880549;29;20285;-89
2022/06/18 04:39:35;;;;;;;5.93;3.67;;;20.20;99.90;;;;;;4879666;29;20291;-89
2022/06/18 04:42:02;;;;;;;5.72;3.83;;;20.30;99.90;;;;;;4880516;29;20210;-89
2022/06/18 04:44:29;;;;;;;4.85;3.92;;;20.50;99.90;;;;;;4880309;29;20231;-89
2022/06/18 04:46:56;;;;;;;5.85;4.22;;;20.60;99.90;;;;;;4880235;29;20284;-90
2022/06/18 04:49:23;;;;;;;5.07;4.15;;;20.70;99.90;;;;;;4880592;29;20219;-90
2022/06/18 04:51:50;;;;;;;4.53;3.95;;;20.80;96.50;;;;;;4882414;29;20229;-90
2022/06/18 04:54:17;;;;;;;6.30;4.45;;;20.80;78.80;;;;;;4881497;29;20309;-90
2022/06/18 04:56:45;;;;;;;4.80;4.10;;;20.80;72.30;;;;;;4880916;29;20291;-90
2022/06/18 04:59:15;;;;;;;6.50;3.97;;;20.90;65.80;;;;;;4881760;29;20210;-91
2022/06/18 05:01:42;;;;;;;5.53;4.03;;;20.90;65.90;;;;;;4881527;29;20203;-90
2022/06/18 05:04:10;;;;;;;4.95;4.13;;;21.00;67.60;;;;;;4881616;29;20207;-90
2022/06/18 05:06:37;;;;;;;5.22;3.88;;;21.10;70.50;;;;;;4879101;29;20206;-90
2022/06/18 05:09:04;;;;;;;5.55;4.10;;;21.20;63.20;;;;;;4880400;29;20305;-90
2022/06/18 05:11:31;;;;;;;4.43;4.00;;;21.40;53.10;;;;;;4881433;29;20267;-91
2022/06/18 05:13:59;;;;;;;7.93;4.00;;;21.70;45.30;;;;;;4873886;29;20232;-92
2022/06/18 05:16:26;;;;;;;6.63;4.03;;;22.70;99.90;;;;;;4881509;29;20160;-92
2022/06/18 05:18:54;;;;;;;;;;;24.30;68.00;;;;;;4881748;29;19974;-92
2022/06/18 05:21:21;;;;;;;4.28;3.30;;;25.60;1.00;;;;;;4880620;29;20376;-92
2022/06/18 05:23:48;;;;;;;;;;;26.00;36.50;;;;;;4872861;29;20509;-91
2022/06/18 05:26:16;;;;;;;5.53;3.30;;;26.40;26.30;;;;;;4875659;29;20211;-93
2022/06/18 05:28:43;;;;;;;4.68;3.10;;;27.00;17.70;;;;;;4880074;29;20291;-92
2022/06/18 05:31:12;;;;;;;4.22;3.40;;;27.60;4.10;;;;;;4880618;29;20219;-93
2022/06/18 05:33:39;;;;;;;5.20;3.38;;;28.00;1.00;;;;;;4880841;29;20199;-92
2022/06/18 05:36:10;;;;;;;3.80;2.90;;;29.00;1.00;;;;;;4880390;29;20596;-90
2022/06/18 05:38:37;;;;;;;2.92;2.63;;;30.00;1.00;;;;;;4880615;29;20266;-90
2022/06/18 05:41:04;;;;;;;;;;;31.10;1.00;;;;;;4880209;29;20490;-90
2022/06/18 05:43:32;;;;;;;3.65;2.60;;;32.20;1.00;;;;;;4880329;29;20639;-90
2022/06/18 05:45:59;;;;;;;5.75;2.40;;;33.40;1.00;;;;;;4879855;29;20650;-91
2022/06/18 05:48:27;;;;;;;3.25;2.50;;;34.50;1.00;;;;;;4879485;29;20203;-89
2022/06/18 05:50:54;;;;;;;3.72;2.72;;;34.70;1.00;;;;;;4879495;29;20222;-89
2022/06/18 05:53:21;;;;;;;5.50;2.58;;;34.00;1.00;;;;;;4878969;29;20272;-90
2022/06/18 05:55:48;;;;;;;6.65;2.65;;;33.30;1.00;;;;;;4880612;29;20182;-89
2022/06/18 05:58:15;;;;;;;;;;;32.60;1.00;;;;;;4889988;29;20096;-89
2022/06/18 06:00:42;;;;;;;5.50;2.90;;;32.00;1.00;;;;;;4894164;29;20204;-89
2022/06/18 06:03:10;;;;;;;5.53;2.55;;;31.80;1.00;;;;;;4888551;29;20294;-90
2022/06/18 06:05:38;;;;;;;4.55;2.00;;;32.30;1.00;;;;;;4892587;29;20206;-90
2022/06/18 06:08:06;;;;;;;3.53;2.13;;;33.20;1.00;;;;;;4888488;29;20226;-91
2022/06/18 06:13:22;;;;;;;6.82;2.20;;;35.10;1.00;;;;;;4887246;29;20201;-90
2022/06/18 06:15:50;;;;;;;2.45;1.70;;;35.90;1.00;;;;;;4892123;29;20206;-91
2022/06/18 06:18:20;;;;;;;4.70;2.00;;;36.40;1.00;;;;;;4888883;29;20234;-91
2022/06/18 06:20:51;;;;;;;4.47;2.10;;;36.90;1.00;;;;;;4890550;29;20197;-91
2022/06/18 06:23:18;;;;;;;2.75;2.00;;;37.20;1.00;;;;;;4887753;29;20223;-92
2022/06/18 06:25:47;;;;;;;7.03;2.55;;;37.60;1.00;;;;;;4888349;29;20217;-91
2022/06/18 06:28:16;;;;;;;6.82;2.10;;;38.00;1.00;;;;;;4892293;29;20241;-91
2022/06/18 06:30:43;;;;;;;3.83;1.60;;;38.50;1.00;;;;;;4887698;29;20694;-91
2022/06/18 06:33:11;;;;;;;3.60;2.00;;;38.90;1.00;;;;;;4882964;29;20209;-91
2022/06/18 06:35:38;;;;;;;4.85;2.25;;;39.10;1.00;;;;;;4878786;29;20215;-92
2022/06/18 06:38:07;;;;;;;1.80;1.70;;;39.20;1.00;;;;;;4878786;29;20218;-91
2022/06/18 06:40:36;;;;;;;3.00;2.10;;;39.50;1.00;;;;;;4887957;29;20755;-91
2022/06/18 06:43:04;;;;;;;3.13;2.50;;;39.80;1.00;;;;;;4882428;29;20641;-92
2022/06/18 06:45:34;;;;;;;7.03;2.17;;;40.20;1.00;;;;;;4886397;29;20676;-91
2022/06/18 06:48:01;;;;;;;2.28;1.90;;;40.40;1.00;;;;;;4888293;29;20301;-93
2022/06/18 06:50:30;;;;;;;4.80;1.58;;;40.70;1.00;;;;;;4880010;29;20294;-92
2022/06/18 06:52:58;;;;;;;3.88;1.77;;;40.90;1.00;;;;;;4880374;29;20620;-94
2022/06/18 06:58:13;;;;;;;3.28;1.90;;;41.30;1.00;;;;;;4879545;29;20205;-90
2022/06/18 07:00:43;;;;;;;2.80;1.58;;;41.40;1.00;;;;;;4880014;29;20231;-91
2022/06/18 07:03:12;;;;;;;2.70;1.48;;;41.60;1.00;;;;;;4879566;29;20266;-93
2022/06/18 07:05:39;;;;;;;2.28;1.50;;;41.70;1.00;;;;;;4878647;29;20198;-90
2022/06/18 07:08:07;;;;;;;4.97;1.60;;;41.80;1.00;;;;;;4886113;29;20238;-91
2022/06/18 07:10:35;;;;;;;1.60;1.10;;;42.00;1.00;;;;;;4887121;29;20677;-91
2022/06/18 07:13:03;;;;;;;2.75;1.35;;;42.30;1.00;;;;;;4890527;29;20202;-90
2022/06/18 07:15:30;;;;;;;2.55;1.50;;;42.20;1.00;;;;;;4891984;29;20210;-90
2022/06/18 07:17:58;;;;;;;4.85;1.40;;;41.30;1.00;;;;;;4894404;29;20209;-90
2022/06/18 07:20:26;;;;;;;2.92;1.10;;;40.50;1.00;;;;;;4891343;29;20214;-91
2022/06/18 07:22:56;;;;;;;3.10;1.20;;;40.50;1.00;;;;;;4894532;29;20202;-90
2022/06/18 07:25:23;;;;;;;1.48;1.00;;;40.90;1.00;;;;;;4891387;29;20229;-93
2022/06/18 07:27:53;;;;;;;4.00;1.23;;;40.80;1.00;;;;;;4894167;29;20225;-91
2022/06/18 07:30:21;;;;;;;6.28;1.10;;;40.70;1.00;;;;;;4881224;29;20225;-90
2022/06/18 07:32:49;;;;;;;3.88;1.15;;;40.80;1.00;;;;;;4895670;29;20194;-91
2022/06/18 07:35:21;;;;;;;3.22;1.20;;;41.00;1.00;;;;;;4881844;29;20258;-90
2022/06/18 07:37:48;;;;;;;3.70;1.10;;;41.20;1.00;;;;;;4882086;29;20210;-91
2022/06/18 07:40:16;;;;;;;3.33;1.10;;;41.10;1.00;;;;;;4881228;29;20555;-90
2022/06/18 07:42:45;;;;;;;3.35;1.35;;;41.20;1.00;;;;;;4881449;29;20237;-90
2022/06/18 07:45:17;;;;;;;2.60;1.35;;;41.30;1.00;;;;;;4880961;29;20619;-90
2022/06/18 07:47:45;;;;;;;3.88;1.00;;;41.60;1.00;;;;;;4881791;29;20217;-90
2022/06/18 07:50:13;;;;;;;3.15;1.27;;;41.60;1.00;;;;;;4881319;29;20229;-90
2022/06/18 07:52:40;;;;;;;3.58;1.25;;;41.70;1.00;;;;;;4881458;29;20289;-91
2022/06/18 07:55:11;;;;;;;3.55;1.20;;;41.70;1.00;;;;;;4881533;29;20297;-90
2022/06/18 07:57:38;;;;;;;2.17;0.93;;;41.90;1.00;;;;;;4881304;29;20226;-92
2022/06/18 08:00:06;;;;;;;1.55;1.00;;;42.00;1.00;;;;;;4881324;29;20226;-90
2022/06/18 08:02:39;;;;;;;1.77;1.05;;;41.70;1.00;;;;;;4881137;29;20258;-90
2022/06/18 08:05:08;;;;;;;5.00;1.80;;;41.90;1.00;;;;;;4880887;29;20218;-90
2022/06/18 08:07:35;;;;;;;11.55;5.68;;;42.00;1.00;;;;;;4881236;29;20233;-91
2022/06/18 08:10:02;;;;;;;2.97;0.90;;;42.10;1.00;;;;;;4880772;29;20687;-90
2022/06/18 08:12:29;;;;;;;2.47;1.13;;;42.30;1.00;;;;;;4880778;29;20195;-89
2022/06/18 08:14:58;;;;;;;2.63;0.95;;;42.10;1.00;;;;;;4881100;29;20717;-89
2022/06/18 08:17:25;;;;;;;2.67;0.90;;;42.00;1.00;;;;;;4881468;29;20290;-90
2022/06/18 08:19:53;;;;;;;4.13;1.67;;;41.70;1.00;;;;;;4881169;29;20209;-92
2022/06/18 08:22:22;;;;;;;1.25;0.85;;;41.60;1.00;;;;;;4881094;29;20229;-89
2022/06/18 08:24:49;;;;;;;4.13;1.20;;;41.60;1.00;;;;;;4881548;29;20209;-90
2022/06/18 08:27:17;;;;;;;4.35;1.20;;;41.60;1.00;;;;;;4882235;29;20655;-92
2022/06/18 08:29:44;;;;;;;2.63;1.17;;;41.60;1.00;;;;;;4881820;29;20233;-90
2022/06/18 08:32:11;;;;;;;1.67;0.95;;;41.40;1.00;;;;;;4880559;29;20234;-89
2022/06/18 08:34:38;;;;;;;1.85;1.10;;;41.40;1.00;;;;;;4880626;29;20561;-90
2022/06/18 08:37:09;;;;;;;5.35;1.63;;;41.30;1.00;;;;;;4880605;29;20565;-88
2022/06/18 08:39:38;;;;;;;3.28;1.00;;;41.40;1.00;;;;;;4881442;29;20194;-90
2022/06/18 08:42:20;;;;;;;2.78;1.10;;;41.60;1.00;;;;;;4888178;29;20206;-90
2022/06/18 08:45:03;;;;;;;5.32;1.30;;;41.80;1.00;;;;;;4880602;29;20191;-89
2022/06/18 08:47:58;;;;;;;2.20;1.00;;;42.00;1.00;;;;;;4898857;29;20194;-90
2022/06/18 08:50:40;;;;;;;3.28;1.20;;;42.00;1.00;;;;;;4882924;29;20705;-91
2022/06/18 08:53:27;;;;;;;1.98;1.17;;;41.80;1.00;;;;;;4894319;29;20193;-91
2022/06/18 08:56:00;;;;;;;3.20;1.00;;;41.80;1.00;;;;;;4898801;29;20249;-90
2022/06/18 08:58:33;;;;;;;1.50;1.40;;;41.90;1.00;;;;;;4897291;29;20212;-92
2022/06/18 09:01:06;;;;;;;2.25;1.10;;;42.10;1.00;;;;;;4898739;29;20680;-91
2022/06/18 09:03:50;;;;;;;1.55;1.13;;;42.00;1.00;;;;;;4880305;29;20667;-91
2022/06/18 09:06:28;;;;;;;2.13;1.10;;;42.10;1.00;;;;;;4879545;29;20256;-92
2022/06/18 09:09:06;;;;;;;2.55;1.30;;;42.10;1.00;;;;;;4884742;29;20220;-91
2022/06/18 09:11:55;;;;;;;1.40;1.10;;;41.90;1.00;;;;;;4879575;29;20257;-90
2022/06/18 09:14:31;;;;;;;3.22;1.10;;;41.50;1.00;;;;;;4868340;29;20205;-90
2022/06/18 09:17:06;;;;;;;2.15;1.00;;;41.20;1.00;;;;;;4881845;29;20281;-90
2022/06/18 09:19:36;;;;;;;1.92;1.20;;;41.00;1.00;;;;;;4879709;29;20214;-91
2022/06/18 09:22:09;;;;;;;2.33;1.00;;;41.00;1.00;;;;;;4883075;29;20079;-90
2022/06/18 09:24:41;;;;;;;1.90;1.15;;;41.00;1.00;;;;;;4879802;29;20230;-92
2022/06/18 09:27:18;;;;;;;6.55;1.58;;;40.70;1.00;;;;;;4892988;29;20259;-89
2022/06/18 09:29:49;;;;;;;3.65;1.40;;;40.40;1.00;;;;;;4880330;29;20235;-90
2022/06/18 09:32:23;;;;;;;4.57;1.65;;;40.00;1.00;;;;;;4879271;29;20266;-90
2022/06/18 09:34:56;;;;;;;2.58;1.48;;;39.60;1.00;;;;;;4878624;29;20226;-90
2022/06/18 09:37:28;;;;;;;5.22;1.67;;;38.90;1.00;;;;;;4880174;29;20301;-92
2022/06/18 09:40:00;;;;;;;2.58;1.30;;;38.40;1.00;;;;;;4879144;29;20662;-91
2022/06/18 09:42:36;;;;;;;2.25;1.50;;;37.90;1.00;;;;;;4879989;29;20289;-91
2022/06/18 09:45:11;;;;;;;5.90;1.60;;;37.60;1.00;;;;;;4880246;29;20293;-90
2022/06/18 09:47:40;;;;;;;3.40;1.52;;;37.50;1.00;;;;;;4879721;29;20198;-90
2022/06/18 09:50:15;;;;;;;3.03;1.40;;;37.40;1.00;;;;;;4880148;29;20225;-90
2022/06/18 09:52:44;;;;;;;1.90;1.30;;;37.20;1.00;;;;;;4881431;29;20206;-92
2022/06/18 09:55:17;;;;;;;1.40;1.30;;;37.00;1.00;;;;;;4879941;29;20227;-91
2022/06/18 09:57:50;;;;;;;2.85;1.55;;;37.00;1.00;;;;;;4880133;29;20215;-91
2022/06/18 10:00:20;;;;;;;4.32;1.52;;;36.90;1.00;;;;;;4879805;29;20199;-92
2022/06/18 10:02:54;;;;;;;3.00;1.70;;;36.70;1.00;;;;;;4881238;29;20210;-92
2022/06/18 10:08:13;;;;;;;3.65;1.35;;;36.30;1.00;;;;;;4867976;29;20194;-90
2022/06/18 10:10:47;;;;;;;2.63;1.35;;;36.20;1.00;;;;;;4887342;29;20226;-92
2022/06/18 10:13:18;;;;;;;3.22;1.50;;;36.30;1.00;;;;;;4878662;29;20717;-91
2022/06/18 10:15:46;;;;;;;2.45;1.35;;;36.20;1.00;;;;;;4890585;29;20209;-91
2022/06/18 10:18:26;;;;;;;4.05;1.27;;;36.00;1.00;;;;;;4895753;29;20217;-94
2022/06/18 10:20:59;;;;;;;2.25;1.35;;;35.80;1.00;;;;;;4896214;29;20609;-92
2022/06/18 10:23:38;;;;;;;2.60;1.65;;;35.80;1.00;;;;;;4894440;29;20240;-91
2022/06/18 10:26:13;;;;;;;4.57;1.70;;;35.80;1.00;;;;;;4885516;29;20206;-90
2022/06/18 10:28:48;;;;;;;3.20;1.60;;;35.90;1.00;;;;;;4892979;29;20202;-91
2022/06/18 10:31:22;;;;;;;2.25;1.45;;;35.80;1.00;;;;;;4896692;29;20293;-92
2022/06/18 10:33:59;;;;;;;5.40;2.08;;;35.70;1.00;;;;;;4887161;29;20206;-91
2022/06/18 10:36:34;;;;;;;4.40;2.20;;;35.80;1.00;;;;;;4880785;29;20206;-91
2022/06/18 10:39:15;;;;;;;2.70;1.48;;;36.00;1.00;;;;;;4880861;29;20254;-92
2022/06/18 10:41:54;;;;;;;2.15;1.55;;;36.10;1.00;;;;;;4887695;29;20261;-91
2022/06/18 10:44:41;;;;;;;4.68;1.55;;;36.00;1.00;;;;;;4888155;29;20633;-91
2022/06/18 10:47:12;;;;;;;4.85;1.80;;;35.90;1.00;;;;;;4892767;29;20229;-91
2022/06/18 10:49:39;;;;;;;3.03;1.33;;;35.80;1.00;;;;;;4887642;29;20222;-93
2022/06/18 10:52:18;;;;;;;2.22;1.20;;;35.70;1.00;;;;;;4886308;29;20281;-93
2022/06/18 10:54:45;;;;;;;2.75;1.55;;;35.60;1.00;;;;;;4880899;29;20663;-91
2022/06/18 10:57:25;;;;;;;3.35;1.55;;;35.50;1.00;;;;;;4888977;29;20198;-91
2022/06/18 10:59:52;;;;;;;3.65;1.50;;;35.40;1.00;;;;;;4880436;29;20205;-91
2022/06/18 11:02:25;;;;;;;2.60;1.48;;;35.40;1.00;;;;;;4880906;29;20271;-92
2022/06/18 11:04:58;;;;;;;2.22;1.67;;;35.40;1.00;;;;;;4881913;29;20221;-90
2022/06/18 11:07:28;;;;;;;5.22;1.80;;;35.30;1.00;;;;;;4885219;29;20203;-91
2022/06/18 11:09:58;;;;;;;5.43;1.67;;;35.30;1.00;;;;;;4885535;29;20294;-91
2022/06/18 11:12:30;;;;;;;3.75;1.45;;;35.20;1.00;;;;;;4889203;29;20205;-93
2022/06/18 11:14:57;;;;;;;7.85;1.92;;;35.20;1.00;;;;;;4890943;29;20263;-90
2022/06/18 11:17:30;;;;;;;3.25;1.70;;;35.30;1.00;;;;;;4895218;29;20253;-91
2022/06/18 11:20:09;;;;;;;2.10;1.70;;;35.30;1.00;;;;;;4885930;29;20213;-92
2022/06/18 11:22:37;;;;;;;2.20;1.40;;;35.30;1.00;;;;;;4888088;29;20227;-92
2022/06/18 11:25:22;;;;;;;3.85;1.42;;;35.30;1.00;;;;;;4885486;29;20211;-89
2022/06/18 11:27:51;;;;;;;4.65;1.80;;;35.20;1.00;;;;;;4887170;29;20637;-91
2022/06/18 11:30:26;;;;;;;3.03;1.92;;;35.10;1.00;;;;;;4885339;29;20210;-91
2022/06/18 11:32:53;;;;;;;4.22;1.80;;;35.10;1.00;;;;;;4882015;29;20281;-91
2022/06/18 11:35:25;;;;;;;3.00;1.60;;;35.10;1.00;;;;;;4884119;29;20227;-92
2022/06/18 11:38:01;;;;;;;5.63;1.98;;;35.20;1.00;;;;;;4884667;29;20647;-90
2022/06/18 11:40:29;;;;;;;6.40;1.90;;;35.10;1.00;;;;;;4882712;29;20573;-90
2022/06/18 11:43:02;;;;;;;3.17;2.00;;;35.10;1.00;;;;;;4882631;29;20210;-90
2022/06/18 11:45:46;;;;;;;9.35;2.10;;;35.10;1.00;;;;;;4882719;29;20677;-90
2022/06/18 11:48:24;;;;;;;6.93;1.98;;;35.10;1.00;;;;;;4882774;29;20214;-90
2022/06/18 11:50:57;;;;;;;10.90;2.70;;;35.00;1.00;;;;;;4882305;29;20252;-89
2022/06/18 11:53:31;;;;;;;5.35;1.98;;;34.90;1.00;;;;;;4881925;29;20226;-89
2022/06/18 11:55:59;;;;;;;6.32;1.80;;;34.90;1.00;;;;;;4882904;29;20259;-91
2022/06/18 11:58:33;;;;;;;8.48;2.00;;;34.90;1.00;;;;;;4881698;29;20203;-90
2022/06/18 12:01:08;;;;;;;4.97;2.03;;;34.90;1.00;;;;;;4881615;29;20675;-92
2022/06/18 12:03:39;;;;;;;15.57;2.60;;;34.90;1.00;;;;;;4881488;29;20221;-91
2022/06/18 12:06:12;;;;;;;13.80;2.45;;;34.90;1.00;;;;;;4881715;29;20195;-90
2022/06/18 12:08:40;;;;;;;15.02;2.60;;;34.80;1.00;;;;;;4881421;29;20215;-90
2022/06/18 12:11:33;;;;;;;4.38;1.88;;;34.90;1.00;;;;;;4881927;29;20701;-91
2022/06/18 12:14:06;;;;;;;6.22;2.42;;;34.90;1.00;;;;;;4881884;29;20629;-89
2022/06/18 12:16:41;;;;;;;5.07;1.90;;;34.90;1.00;;;;;;4882081;29;20210;-88
2022/06/18 12:19:14;;;;;;;5.32;1.80;;;34.90;1.00;;;;;;4881645;29;20285;-89
2022/06/18 12:21:46;;;;;;;5.75;1.88;;;34.90;1.00;;;;;;4882553;29;20207;-91
2022/06/18 12:24:24;;;;;;;6.32;2.30;;;34.80;1.00;;;;;;4881821;29;20329;-90
2022/06/18 12:26:58;;;;;;;3.67;1.85;;;34.90;1.00;;;;;;4882916;29;20262;-90
2022/06/18 12:29:40;;;;;;;4.07;2.00;;;34.80;1.00;;;;;;4883338;29;20229;-91
2022/06/18 12:32:17;;;;;;;3.97;2.03;;;34.90;1.00;;;;;;4882469;29;20214;-91
2022/06/18 12:34:56;;;;;;;8.40;2.38;;;34.90;1.00;;;;;;4884973;29;20198;-91
2022/06/18 12:37:31;;;;;;;9.23;2.67;;;34.90;1.00;;;;;;4889469;29;20277;-88
2022/06/18 12:40:07;;;;;;;10.63;2.78;;;34.90;1.00;;;;;;4884412;29;20588;-87
2022/06/18 12:42:40;;;;;;;12.10;2.67;;;34.80;1.00;;;;;;4881989;29;20198;-92
2022/06/18 12:45:18;;;;;;;8.98;2.00;;;34.80;1.00;;;;;;4880978;29;20280;-88
2022/06/18 12:47:59;;;;;;;6.78;2.00;;;34.80;1.00;;;;;;4881080;29;20202;-87
2022/06/18 12:50:38;;;;;;;9.23;2.40;;;34.80;1.00;;;;;;4880891;29;20294;-88
2022/06/18 12:53:18;;;;;;;6.25;2.17;;;34.80;1.00;;;;;;4880803;29;20231;-90
2022/06/18 12:55:53;;;;;;;7.88;2.40;;;34.90;1.00;;;;;;4881253;29;20302;-89
2022/06/18 12:58:28;;;;;;;8.43;2.10;;;34.90;1.00;;;;;;4882073;29;20198;-89
2022/06/18 13:01:00;;;;;;;7.25;2.20;;;34.80;1.00;;;;;;4882608;29;20608;-90
2022/06/18 13:03:47;;;;;;;9.13;2.47;;;34.80;1.00;;;;;;4883270;29;20283;-87
2022/06/18 13:06:24;;;;;;;7.00;2.70;;;34.80;1.00;;;;;;4880649;29;20302;-91
2022/06/18 13:09:01;;;;;;;6.32;2.40;;;34.80;1.00;;;;;;4879604;29;20622;-88
2022/06/18 13:11:39;;;;;;;8.93;2.38;;;34.80;1.00;;;;;;4880178;29;20217;-88
2022/06/18 13:14:18;;;;;;;5.03;2.33;;;34.80;1.00;;;;;;4880248;29;20227;-90
2022/06/18 13:16:51;;;;;;;7.82;2.70;;;34.60;1.00;;;;;;4880095;29;20558;-91
2022/06/18 13:19:22;;;;;;;6.95;2.30;;;34.60;1.00;;;;;;4880275;29;20674;-90
2022/06/18 13:21:50;;;;;;;5.18;2.72;;;34.50;1.00;;;;;;4880032;29;20199;-88
2022/06/18 13:30:00;;;;;;;7.53;2.83;;;34.50;1.00;;;;;;4873119;29;20246;-92
2022/06/18 13:32:35;;;;;;;8.13;2.65;;;34.50;1.00;;;;;;4886075;29;20221;-91